createdAt,value
2022-11-08T00:01:31.561Z,13.07
2022-11-08T00:03:33.414Z,13.18
2022-11-08T00:05:54.003Z,13.14
2022-11-08T00:08:14.474Z,13.12
2022-11-08T00:10:34.924Z,13.13
2022-11-08T00:12:55.739Z,13.19
2022-11-08T00:14:57.900Z,13.21
2022-11-08T00:16:59.735Z,13.10
2022-11-08T00:19:01.863Z,13.21
2022-11-08T00:21:03.849Z,13.35
2022-11-08T00:23:07.245Z,13.17
2022-11-08T00:25:10.765Z,13.27
2022-11-08T00:27:15.323Z,13.18
2022-11-08T00:29:17.103Z,13.16
2022-11-08T00:31:19.247Z,13.25
2022-11-08T00:33:21.254Z,13.32
2022-11-08T00:35:23.054Z,13.21
2022-11-08T00:37:25.815Z,13.25
2022-11-08T00:39:27.768Z,13.36
2022-11-08T00:41:29.547Z,13.50
2022-11-08T00:43:31.721Z,13.35
2022-11-08T00:45:33.481Z,13.23
2022-11-08T00:47:35.279Z,13.46
2022-11-08T00:49:37.843Z,13.48
2022-11-08T00:51:39.857Z,13.48
2022-11-08T00:53:41.851Z,13.46
2022-11-08T00:55:44.134Z,13.45
2022-11-08T00:58:01.149Z,13.33
2022-11-08T01:00:03.523Z,13.32
2022-11-08T01:02:05.813Z,13.31
2022-11-08T01:04:09.342Z,13.38
2022-11-08T01:06:13.595Z,13.36
2022-11-08T01:08:16.677Z,13.33
2022-11-08T01:10:18.913Z,13.47
2022-11-08T01:12:20.788Z,13.55
2022-11-08T01:14:23.116Z,13.57
2022-11-08T01:16:27.529Z,13.53
2022-11-08T01:18:29.486Z,13.48
2022-11-08T01:20:31.647Z,13.38
2022-11-08T01:22:33.439Z,13.40
2022-11-08T01:24:35.292Z,13.45
2022-11-08T01:26:37.472Z,13.50
2022-11-08T01:28:39.368Z,13.52
2022-11-08T01:30:42.987Z,13.57
2022-11-08T01:32:45.186Z,13.55
2022-11-08T01:34:46.973Z,13.59
2022-11-08T01:36:48.839Z,13.61
2022-11-08T01:38:51.189Z,13.66
2022-11-08T01:40:53.342Z,13.68
2022-11-08T01:42:55.209Z,13.74
2022-11-08T01:45:03.249Z,13.74
2022-11-08T01:47:05.014Z,13.54
2022-11-08T01:49:15.871Z,13.46
2022-11-08T01:51:22.023Z,13.62
2022-11-08T01:53:24.346Z,13.71
2022-11-08T01:55:31.019Z,13.68
2022-11-08T01:57:44.201Z,13.66
2022-11-08T01:59:48.028Z,13.55
2022-11-08T02:01:50.097Z,13.67
2022-11-08T02:03:52.966Z,13.57
2022-11-08T02:05:54.998Z,13.59
2022-11-08T02:08:15.093Z,13.68
2022-11-08T02:10:18.436Z,13.61
2022-11-08T02:12:22.435Z,13.70
2022-11-08T02:14:24.263Z,13.59
2022-11-08T02:16:26.437Z,13.62
2022-11-08T02:18:32.045Z,13.60
2022-11-08T02:20:34.334Z,13.48
2022-11-08T02:22:46.740Z,13.64
2022-11-08T02:24:48.583Z,13.70
2022-11-08T02:26:53.203Z,13.70
2022-11-08T02:28:55.807Z,13.85
2022-11-08T02:30:57.670Z,13.85
2022-11-08T02:32:59.517Z,13.91
2022-11-08T02:35:01.840Z,13.82
2022-11-08T02:37:04.280Z,13.96
2022-11-08T02:39:06.150Z,14.03
2022-11-08T02:41:08.633Z,14.05
2022-11-08T02:43:10.657Z,13.93
2022-11-08T02:45:12.451Z,13.96
2022-11-08T02:47:15.605Z,13.91
2022-11-08T02:49:17.486Z,13.86
2022-11-08T02:51:19.613Z,13.85
2022-11-08T02:53:22.218Z,13.93
2022-11-08T02:55:24.199Z,13.99
2022-11-08T02:57:26.035Z,14.04
2022-11-08T02:59:28.221Z,14.04
2022-11-08T03:01:30.067Z,13.95
2022-11-08T03:03:31.988Z,13.98
2022-11-08T03:05:34.256Z,13.95
2022-11-08T03:07:36.171Z,13.97
2022-11-08T03:09:38.166Z,13.93
2022-11-08T03:11:40.347Z,14.00
2022-11-08T03:13:42.099Z,13.98
2022-11-08T03:15:43.972Z,13.90
2022-11-08T03:17:46.153Z,13.97
2022-11-08T03:19:47.929Z,14.07
2022-11-08T03:21:49.818Z,14.08
2022-11-08T03:23:52.009Z,13.91
2022-11-08T03:25:54.124Z,13.82
2022-11-08T03:27:56.397Z,14.01
2022-11-08T03:29:58.571Z,14.14
2022-11-08T03:32:00.658Z,14.15
2022-11-08T03:34:02.708Z,14.12
2022-11-08T03:36:05.457Z,13.99
2022-11-08T03:38:07.295Z,14.01
2022-11-08T03:40:10.008Z,13.93
2022-11-08T03:42:12.481Z,13.94
2022-11-08T03:44:14.272Z,13.93
2022-11-08T03:46:16.363Z,13.82
2022-11-08T03:48:19.269Z,13.97
2022-11-08T03:50:21.588Z,13.92
2022-11-08T03:52:23.374Z,13.85
2022-11-08T03:54:25.707Z,13.88
2022-11-08T03:56:27.505Z,13.69
2022-11-08T03:58:29.398Z,13.73
2022-11-08T04:00:31.516Z,13.82
2022-11-08T04:02:33.807Z,13.85
2022-11-08T04:04:35.627Z,13.90
2022-11-08T04:06:37.918Z,13.87
2022-11-08T04:08:39.682Z,13.99
2022-11-08T04:10:41.495Z,13.95
2022-11-08T04:13:02.159Z,14.00
2022-11-08T04:15:16.483Z,13.97
2022-11-08T04:17:18.257Z,13.92
2022-11-08T04:19:39.304Z,14.03
2022-11-08T04:21:43.743Z,14.03
2022-11-08T04:23:47.119Z,14.05
2022-11-08T04:25:56.033Z,14.12
2022-11-08T04:27:57.821Z,14.10
2022-11-08T04:29:59.647Z,14.12
2022-11-08T04:32:01.833Z,14.05
2022-11-08T04:34:03.992Z,14.11
2022-11-08T04:36:16.871Z,14.14
2022-11-08T04:38:20.260Z,14.24
2022-11-08T04:40:22.340Z,14.11
2022-11-08T04:42:24.209Z,14.01
2022-11-08T04:44:26.350Z,14.07
2022-11-08T04:46:29.460Z,14.03
2022-11-08T04:48:31.484Z,13.99
2022-11-08T04:50:34.458Z,14.12
2022-11-08T04:52:36.306Z,14.04
2022-11-08T04:54:38.430Z,14.01
2022-11-08T04:56:41.970Z,13.97
2022-11-08T04:58:45.750Z,13.96
2022-11-08T05:00:47.533Z,13.83
2022-11-08T05:02:49.782Z,13.67
2022-11-08T05:04:51.634Z,13.62
2022-11-08T05:06:53.742Z,13.55
2022-11-08T05:08:56.862Z,13.57
2022-11-08T05:11:10.300Z,13.52
2022-11-08T05:13:12.015Z,13.42
2022-11-08T05:15:14.282Z,13.33
2022-11-08T05:17:16.406Z,13.28
2022-11-08T05:19:38.169Z,13.32
2022-11-08T05:21:58.739Z,13.28
2022-11-08T05:24:01.684Z,13.19
2022-11-08T05:26:03.626Z,13.10
2022-11-08T05:28:05.891Z,13.11
2022-11-08T05:30:08.285Z,13.11
2022-11-08T05:32:10.070Z,13.04
2022-11-08T05:34:12.289Z,13.01
2022-11-08T05:36:16.485Z,12.92
2022-11-08T05:38:19.385Z,12.97
2022-11-08T05:40:22.444Z,13.00
2022-11-08T05:42:24.254Z,12.87
2022-11-08T05:44:26.107Z,12.98
2022-11-08T05:46:28.282Z,12.92
2022-11-08T05:48:30.390Z,12.92
2022-11-08T05:50:36.174Z,12.83
2022-11-08T05:52:38.492Z,12.85
2022-11-08T05:54:40.520Z,12.96
2022-11-08T05:56:42.385Z,13.11
2022-11-08T05:58:45.677Z,13.15
2022-11-08T06:00:47.537Z,13.25
2022-11-08T06:02:49.442Z,13.33
2022-11-08T06:04:51.718Z,13.40
2022-11-08T06:06:53.709Z,13.51
2022-11-08T06:08:55.596Z,13.55
2022-11-08T06:11:05.352Z,13.75
2022-11-08T06:13:07.232Z,13.70
2022-11-08T06:15:09.808Z,13.70
2022-11-08T06:17:12.347Z,13.65
2022-11-08T06:19:14.158Z,13.74
2022-11-08T06:21:18.791Z,13.90
2022-11-08T06:23:21.123Z,14.01
2022-11-08T06:25:23.449Z,14.53
2022-11-08T06:27:25.395Z,14.95
2022-11-08T06:29:27.575Z,15.33
2022-11-08T06:31:29.625Z,15.66
2022-11-08T06:33:32.191Z,16.13
2022-11-08T06:35:34.376Z,16.58
2022-11-08T06:37:39.218Z,16.72
2022-11-08T06:39:41.908Z,17.08
2022-11-08T06:41:44.087Z,17.00
2022-11-08T06:43:46.039Z,16.53
2022-11-08T06:45:48.236Z,16.57
2022-11-08T06:47:50.677Z,16.41
2022-11-08T06:49:52.514Z,16.36
2022-11-08T06:51:54.491Z,16.17
2022-11-08T06:53:56.660Z,16.23
2022-11-08T06:56:00.286Z,15.99
2022-11-08T06:58:02.927Z,15.32
2022-11-08T07:00:05.739Z,15.56
2022-11-08T07:02:10.256Z,15.74
2022-11-08T07:04:12.372Z,15.63
2022-11-08T07:06:14.553Z,15.60
2022-11-08T07:08:22.317Z,15.63
2022-11-08T07:10:28.864Z,15.23
2022-11-08T07:12:31.628Z,15.24
2022-11-08T07:14:33.931Z,15.27
2022-11-08T07:16:35.717Z,15.31
2022-11-08T07:18:38.053Z,15.27
2022-11-08T07:20:40.535Z,15.13
2022-11-08T07:22:42.350Z,14.94
2022-11-08T07:24:44.547Z,15.20
2022-11-08T07:26:46.359Z,15.33
2022-11-08T07:28:48.144Z,15.41
2022-11-08T07:30:50.571Z,15.64
2022-11-08T07:32:52.705Z,15.72
2022-11-08T07:34:54.496Z,15.94
2022-11-08T07:36:56.742Z,16.72
2022-11-08T07:39:00.184Z,17.46
2022-11-08T07:41:05.884Z,17.78
2022-11-08T07:43:12.712Z,18.42
2022-11-08T07:45:15.013Z,18.66
2022-11-08T07:47:16.835Z,18.58
2022-11-08T07:49:19.148Z,19.18
2022-11-08T07:51:20.974Z,19.40
2022-11-08T07:53:23.263Z,19.54
2022-11-08T07:55:26.487Z,19.19
2022-11-08T07:57:28.280Z,19.33
2022-11-08T07:59:30.089Z,19.59
2022-11-08T08:01:32.898Z,19.36
2022-11-08T08:03:35.561Z,19.71
2022-11-08T08:05:41.168Z,19.77
2022-11-08T08:07:43.339Z,20.15
2022-11-08T08:09:45.233Z,19.93
2022-11-08T08:11:47.263Z,19.97
2022-11-08T08:13:49.565Z,20.43
2022-11-08T08:15:51.424Z,19.81
2022-11-08T08:17:53.579Z,19.92
2022-11-08T08:19:55.970Z,19.94
2022-11-08T08:21:57.904Z,20.22
2022-11-08T08:23:59.743Z,20.20
2022-11-08T08:26:02.650Z,20.24
2022-11-08T08:28:05.923Z,20.47
2022-11-08T08:30:08.449Z,20.35
2022-11-08T08:32:10.573Z,20.24
2022-11-08T08:34:12.557Z,20.18
2022-11-08T08:36:14.363Z,20.09
2022-11-08T08:38:16.566Z,20.21
2022-11-08T08:40:18.483Z,20.10
2022-11-08T08:42:20.339Z,20.15
2022-11-08T08:44:22.507Z,20.30
2022-11-08T08:46:24.355Z,20.31
2022-11-08T08:48:26.171Z,20.44
2022-11-08T08:50:30.574Z,20.44
2022-11-08T08:52:32.410Z,20.14
2022-11-08T08:54:34.235Z,20.43
2022-11-08T08:56:36.401Z,20.15
2022-11-08T08:58:38.766Z,20.04
2022-11-08T09:03:04.754Z,20.44
2022-11-08T09:05:06.729Z,20.58
2022-11-08T09:07:08.722Z,20.79
2022-11-08T09:09:10.967Z,20.51
2022-11-08T09:11:12.834Z,20.69
2022-11-08T09:13:14.800Z,20.54
2022-11-08T09:15:17.495Z,20.20
2022-11-08T09:17:19.342Z,20.33
2022-11-08T09:19:21.107Z,20.13
2022-11-08T09:21:23.258Z,20.15
2022-11-08T09:23:25.211Z,20.31
2022-11-08T09:25:26.980Z,20.44
2022-11-08T09:27:30.861Z,20.24
2022-11-08T09:29:33.475Z,20.26
2022-11-08T09:31:35.669Z,20.14
2022-11-08T09:33:39.340Z,20.53
2022-11-08T09:35:41.170Z,20.66
2022-11-08T09:37:47.098Z,20.08
2022-11-08T09:39:52.070Z,20.20
2022-11-08T09:41:56.895Z,20.32
2022-11-08T09:44:17.285Z,19.91
2022-11-08T09:46:31.049Z,19.52
2022-11-08T09:48:36.963Z,19.52
2022-11-08T09:50:43.237Z,19.54
2022-11-08T09:53:06.702Z,19.80
2022-11-08T09:55:36.574Z,19.85
2022-11-08T09:57:50.757Z,20.01
2022-11-08T10:00:00.364Z,20.17
2022-11-08T10:02:02.453Z,20.31
2022-11-08T10:04:27.487Z,20.14
2022-11-08T10:06:44.134Z,20.23
2022-11-08T10:09:03.591Z,20.18
2022-11-08T10:11:24.320Z,20.17
2022-11-08T10:13:32.058Z,20.07
2022-11-08T10:15:43.317Z,19.69
2022-11-08T10:17:57.521Z,19.53
2022-11-08T10:20:12.707Z,19.52
2022-11-08T10:22:32.328Z,19.77
2022-11-08T10:24:54.222Z,19.82
2022-11-08T10:26:58.923Z,19.56
2022-11-08T10:29:07.786Z,19.65
2022-11-08T10:31:13.279Z,19.79
2022-11-08T10:33:22.553Z,19.90
2022-11-08T10:35:30.527Z,20.09
2022-11-08T10:37:33.484Z,19.93
2022-11-08T10:39:43.107Z,19.99
2022-11-08T10:41:50.845Z,20.10
2022-11-08T10:44:05.742Z,20.01
2022-11-08T10:46:25.218Z,19.90
2022-11-08T10:48:27.438Z,20.00
2022-11-08T10:50:45.188Z,20.17
2022-11-08T10:52:53.274Z,20.27
2022-11-08T10:54:57.777Z,20.37
2022-11-08T10:56:59.919Z,20.40
2022-11-08T10:59:01.686Z,20.38
2022-11-08T11:01:19.046Z,20.36
2022-11-08T11:03:28.915Z,20.38
2022-11-08T11:05:36.193Z,20.55
2022-11-08T11:07:38.203Z,20.58
2022-11-08T11:09:40.570Z,20.77
2022-11-08T11:11:42.591Z,20.78
2022-11-08T11:13:44.577Z,20.54
2022-11-08T11:16:07.200Z,20.46
2022-11-08T11:18:21.944Z,20.64
2022-11-08T11:20:24.198Z,20.73
2022-11-08T11:22:34.450Z,20.64
2022-11-08T11:24:46.420Z,20.86
2022-11-08T11:26:59.538Z,20.85
2022-11-08T11:29:13.605Z,20.84
2022-11-08T11:31:17.192Z,20.75
2022-11-08T11:33:26.811Z,20.64
2022-11-08T11:35:36.945Z,20.54
2022-11-08T11:37:46.990Z,20.85
2022-11-08T11:40:07.442Z,20.92
2022-11-08T11:42:43.696Z,20.73
2022-11-08T11:44:55.554Z,20.83
2022-11-08T11:47:06.001Z,20.81
2022-11-08T11:49:17.778Z,20.69
2022-11-08T11:51:19.728Z,20.70
2022-11-08T11:53:33.050Z,20.57
2022-11-08T11:56:06.996Z,20.29
2022-11-08T11:58:30.286Z,20.41
2022-11-08T12:00:39.747Z,20.35
2022-11-08T12:02:58.967Z,19.88
2022-11-08T12:05:21.848Z,20.14
2022-11-08T12:07:28.542Z,20.15
2022-11-08T12:09:57.553Z,20.25
2022-11-08T12:12:25.926Z,20.29
2022-11-08T12:14:33.837Z,20.28
2022-11-08T12:16:46.442Z,20.29
2022-11-08T12:18:57.102Z,20.42
2022-11-08T12:21:15.152Z,20.17
2022-11-08T12:23:32.479Z,20.09
2022-11-08T12:25:51.886Z,20.32
2022-11-08T12:28:02.049Z,20.44
2022-11-08T12:30:10.527Z,20.33
2022-11-08T12:32:29.387Z,20.27
2022-11-08T12:34:42.845Z,20.34
2022-11-08T12:37:29.053Z,20.24
2022-11-08T12:39:37.439Z,20.26
2022-11-08T12:41:59.599Z,20.40
2022-11-08T12:44:32.581Z,20.43
2022-11-08T12:47:00.810Z,20.38
2022-11-08T12:49:43.759Z,20.37
2022-11-08T12:52:06.847Z,20.31
2022-11-08T12:54:23.023Z,20.35
2022-11-08T12:56:29.848Z,20.48
2022-11-08T12:58:54.452Z,20.48
2022-11-08T13:01:02.464Z,20.52
2022-11-08T13:03:22.707Z,20.76
2022-11-08T13:05:40.358Z,20.91
2022-11-08T13:07:52.385Z,20.89
2022-11-08T13:10:13.042Z,20.59
2022-11-08T13:12:33.282Z,20.91
2022-11-08T13:14:40.976Z,20.98
2022-11-08T13:16:46.444Z,20.38
2022-11-08T13:18:53.826Z,20.40
2022-11-08T13:20:56.575Z,20.53
2022-11-08T13:23:00.557Z,20.48
2022-11-08T13:25:28.317Z,20.58
2022-11-08T13:27:35.917Z,20.29
2022-11-08T13:29:38.911Z,20.35
2022-11-08T13:31:51.177Z,20.23
2022-11-08T13:33:56.675Z,20.19
2022-11-08T13:36:19.211Z,20.14
2022-11-08T13:38:40.464Z,19.89
2022-11-08T13:41:01.067Z,19.83
2022-11-08T13:43:25.191Z,19.77
2022-11-08T13:45:33.834Z,19.86
2022-11-08T13:47:40.059Z,19.83
2022-11-08T13:49:42.920Z,19.85
2022-11-08T13:51:45.207Z,19.85
2022-11-08T13:53:51.502Z,19.79
2022-11-08T13:55:53.878Z,19.39
2022-11-08T13:57:59.305Z,19.34
2022-11-08T14:00:01.782Z,19.47
2022-11-08T14:02:30.292Z,19.42
2022-11-08T14:04:40.858Z,19.19
2022-11-08T14:07:01.454Z,19.30
2022-11-08T14:09:07.779Z,19.33
2022-11-08T14:11:21.899Z,19.23
2022-11-08T14:13:32.634Z,19.23
2022-11-08T14:15:46.599Z,19.13
2022-11-08T14:18:00.123Z,19.09
2022-11-08T14:20:28.361Z,18.95
2022-11-08T14:22:30.626Z,18.65
2022-11-08T14:24:37.354Z,18.57
2022-11-08T14:26:46.947Z,18.64
2022-11-08T14:28:50.653Z,18.53
2022-11-08T14:30:53.019Z,18.45
2022-11-08T14:33:14.570Z,18.46
2022-11-08T14:35:25.881Z,18.50
2022-11-08T14:37:28.341Z,18.40
2022-11-08T14:39:36.848Z,18.38
2022-11-08T14:41:39.693Z,18.29
2022-11-08T14:43:44.054Z,18.21
2022-11-08T14:45:46.551Z,18.11
2022-11-08T14:48:03.279Z,18.08
2022-11-08T14:50:16.316Z,18.07
2022-11-08T14:52:20.219Z,18.04
2022-11-08T14:54:26.996Z,17.98
2022-11-08T14:56:37.825Z,17.85
2022-11-08T14:58:40.071Z,17.80
2022-11-08T15:00:44.060Z,17.71
2022-11-08T15:02:52.068Z,17.66
2022-11-08T15:04:54.568Z,17.61
2022-11-08T15:06:59.063Z,17.50
2022-11-08T15:09:02.705Z,17.24
2022-11-08T15:11:28.375Z,17.23
2022-11-08T15:13:38.619Z,17.22
2022-11-08T15:15:40.709Z,17.34
2022-11-08T15:17:42.987Z,17.23
2022-11-08T15:19:46.467Z,17.28
2022-11-08T15:21:51.562Z,17.20
2022-11-08T15:23:55.034Z,17.17
2022-11-08T15:25:59.476Z,17.11
2022-11-08T15:28:21.468Z,17.08
2022-11-08T15:30:29.871Z,17.12
2022-11-08T15:32:39.868Z,17.10
2022-11-08T15:34:41.998Z,17.04
2022-11-08T15:36:44.258Z,16.97
2022-11-08T15:38:49.657Z,16.93
2022-11-08T15:40:54.967Z,16.97
2022-11-08T15:42:57.979Z,17.03
2022-11-08T15:45:26.134Z,17.05
2022-11-08T15:47:46.123Z,17.03
2022-11-08T15:49:48.650Z,16.98
2022-11-08T15:51:52.942Z,17.01
2022-11-08T15:53:54.801Z,16.93
2022-11-08T15:56:01.311Z,16.88
2022-11-08T15:58:04.763Z,16.94
2022-11-08T16:00:07.435Z,17.00
2022-11-08T16:02:12.478Z,17.06
2022-11-08T16:04:14.317Z,16.77
2022-11-08T16:06:16.314Z,16.72
2022-11-08T16:08:20.921Z,16.77
2022-11-08T16:10:31.332Z,16.76
2022-11-08T16:12:33.211Z,16.75
2022-11-08T16:14:35.366Z,16.65
2022-11-08T16:16:37.229Z,16.64
2022-11-08T16:18:40.218Z,16.67
2022-11-08T16:20:42.431Z,16.70
2022-11-08T16:22:44.606Z,16.61
2022-11-08T16:24:46.415Z,16.69
2022-11-08T16:26:49.257Z,16.71
2022-11-08T16:28:51.148Z,16.72
2022-11-08T16:30:53.688Z,16.69
2022-11-08T16:32:56.504Z,16.69
2022-11-08T16:34:58.427Z,16.62
2022-11-08T16:37:00.650Z,16.53
2022-11-08T16:39:03.979Z,16.58
2022-11-08T16:41:06.235Z,16.53
2022-11-08T16:43:13.149Z,16.48
2022-11-08T16:45:16.867Z,16.51
2022-11-08T16:47:19.257Z,16.46
2022-11-08T16:49:22.431Z,16.34
2022-11-08T16:51:27.729Z,16.51
2022-11-08T16:53:30.235Z,16.50
2022-11-08T16:55:31.994Z,16.42
2022-11-08T16:57:35.370Z,16.45
2022-11-08T16:59:37.456Z,16.29
2022-11-08T17:01:39.988Z,16.41
2022-11-08T17:03:42.181Z,16.43
2022-11-08T17:05:44.619Z,16.49
2022-11-08T17:07:46.847Z,16.45
2022-11-08T17:09:49.415Z,16.47
2022-11-08T17:11:51.181Z,16.37
2022-11-08T17:13:53.162Z,16.37
2022-11-08T17:15:55.395Z,16.36
2022-11-08T17:17:58.868Z,16.27
2022-11-08T17:20:00.816Z,16.41
2022-11-08T17:22:03.045Z,16.49
2022-11-08T17:24:05.440Z,16.47
2022-11-08T17:26:09.123Z,16.46
2022-11-08T17:28:12.562Z,16.39
2022-11-08T17:30:14.786Z,16.42
2022-11-08T17:32:16.827Z,16.31
2022-11-08T17:34:19.823Z,16.34
2022-11-08T17:36:21.868Z,16.23
2022-11-08T17:38:23.970Z,16.31
2022-11-08T17:40:26.584Z,16.25
2022-11-08T17:42:33.979Z,16.32
2022-11-08T17:44:39.704Z,16.22
2022-11-08T17:46:41.935Z,16.20
2022-11-08T17:48:43.776Z,16.15
2022-11-08T17:50:48.892Z,16.20
2022-11-08T17:52:53.778Z,16.27
2022-11-08T17:54:55.893Z,16.23
2022-11-08T17:56:58.300Z,16.21
2022-11-08T17:59:00.552Z,16.27
2022-11-08T18:01:05.017Z,16.21
2022-11-08T18:03:12.495Z,16.15
2022-11-08T18:05:14.842Z,16.25
2022-11-08T18:07:16.780Z,16.15
2022-11-08T18:09:18.987Z,16.10
2022-11-08T18:11:21.541Z,16.22
2022-11-08T18:13:24.688Z,16.15
2022-11-08T18:15:26.791Z,16.00
2022-11-08T18:17:29.159Z,16.08
2022-11-08T18:19:31.232Z,16.07
2022-11-08T18:21:33.110Z,16.08
2022-11-08T18:23:35.543Z,16.02
2022-11-08T18:25:37.345Z,15.99
2022-11-08T18:27:39.522Z,15.74
2022-11-08T18:29:41.634Z,15.80
2022-11-08T18:31:43.621Z,15.75
2022-11-08T18:33:47.784Z,15.75
2022-11-08T18:35:50.023Z,15.76
2022-11-08T18:37:51.865Z,15.62
2022-11-08T18:39:53.761Z,15.76
2022-11-08T18:41:55.925Z,15.73
2022-11-08T18:43:59.691Z,15.65
2022-11-08T18:46:05.670Z,15.71
2022-11-08T18:48:08.111Z,15.68
2022-11-08T18:50:10.713Z,15.71
2022-11-08T18:52:12.776Z,15.61
2022-11-08T18:54:14.965Z,15.53
2022-11-08T18:56:16.938Z,15.71
2022-11-08T18:58:19.760Z,15.58
2022-11-08T19:00:22.014Z,15.63
2022-11-08T19:02:24.252Z,15.53
2022-11-08T19:04:26.143Z,15.48
2022-11-08T19:06:28.458Z,15.42
2022-11-08T19:08:30.819Z,15.36
2022-11-08T19:10:32.945Z,15.42
2022-11-08T19:12:35.331Z,15.29
2022-11-08T19:14:37.616Z,15.17
2022-11-08T19:16:39.407Z,15.16
2022-11-08T19:18:43.183Z,15.26
2022-11-08T19:20:44.952Z,15.26
2022-11-08T19:22:47.019Z,15.36
2022-11-08T19:24:49.183Z,15.33
2022-11-08T19:26:50.979Z,15.42
2022-11-08T19:28:57.125Z,15.40
2022-11-08T19:30:59.650Z,15.21
2022-11-08T19:33:01.509Z,15.27
2022-11-08T19:35:03.337Z,15.31
2022-11-08T19:37:05.930Z,15.14
2022-11-08T19:39:08.032Z,14.97
2022-11-08T19:41:13.328Z,15.14
2022-11-08T19:43:17.271Z,15.13
2022-11-08T19:45:19.296Z,14.98
2022-11-08T19:47:21.127Z,15.06
2022-11-08T19:49:26.321Z,15.03
2022-11-08T19:51:30.749Z,15.04
2022-11-08T19:53:32.778Z,14.87
2022-11-08T19:55:35.042Z,15.21
2022-11-08T19:57:36.954Z,15.12
2022-11-08T19:59:38.737Z,15.04
2022-11-08T20:01:41.208Z,14.96
2022-11-08T20:03:43.929Z,14.94
2022-11-08T20:05:50.331Z,14.89
2022-11-08T20:07:52.476Z,14.89
2022-11-08T20:09:56.033Z,14.81
2022-11-08T20:11:57.898Z,14.81
2022-11-08T20:14:01.215Z,14.81
2022-11-08T20:16:14.899Z,14.76
2022-11-08T20:18:17.404Z,14.82
2022-11-08T20:20:20.335Z,14.72
2022-11-08T20:22:22.214Z,14.80
2022-11-08T20:24:24.094Z,14.87
2022-11-08T20:26:26.884Z,14.73
2022-11-08T20:28:28.814Z,14.87
2022-11-08T20:30:31.027Z,14.83
2022-11-08T20:32:33.523Z,14.87
2022-11-08T20:34:35.343Z,14.84
2022-11-08T20:36:37.880Z,14.72
2022-11-08T20:38:40.554Z,14.76
2022-11-08T20:40:43.973Z,14.68
2022-11-08T20:42:46.128Z,14.62
2022-11-08T20:44:48.456Z,14.50
2022-11-08T20:46:51.195Z,14.54
2022-11-08T20:49:00.188Z,14.67
2022-11-08T20:51:05.132Z,14.58
2022-11-08T20:53:06.975Z,14.59
2022-11-08T20:55:09.175Z,14.54
2022-11-08T20:57:11.384Z,14.54
2022-11-08T20:59:14.903Z,14.49
2022-11-08T21:01:20.248Z,14.49
2022-11-08T21:03:23.173Z,14.47
2022-11-08T21:05:25.196Z,14.44
2022-11-08T21:09:51.016Z,14.37
2022-11-08T21:11:55.218Z,14.21
2022-11-08T21:13:57.166Z,14.41
2022-11-08T21:16:19.800Z,14.28
2022-11-08T21:18:22.618Z,14.25
2022-11-08T21:20:24.547Z,14.17
2022-11-08T21:22:26.897Z,14.18
2022-11-08T21:24:28.714Z,14.23
2022-11-08T21:26:36.337Z,14.21
2022-11-08T21:28:39.259Z,14.26
2022-11-08T21:30:43.965Z,14.28
2022-11-08T21:32:45.862Z,14.30
2022-11-08T21:34:48.297Z,14.26
2022-11-08T21:36:50.123Z,14.10
2022-11-08T21:38:52.088Z,14.24
2022-11-08T21:40:55.061Z,14.02
2022-11-08T21:42:56.887Z,14.17
2022-11-08T21:44:58.654Z,14.10
2022-11-08T21:47:00.824Z,14.14
2022-11-08T21:49:02.858Z,14.13
2022-11-08T21:51:04.951Z,14.14
2022-11-08T21:53:08.211Z,14.06
2022-11-08T21:55:11.746Z,14.07
2022-11-08T21:57:13.615Z,14.03
2022-11-08T21:59:16.064Z,14.07
2022-11-08T22:01:18.148Z,13.98
2022-11-08T22:03:20.133Z,13.96
2022-11-08T22:05:22.726Z,13.80
2022-11-08T22:07:24.675Z,13.69
2022-11-08T22:09:26.575Z,13.76
2022-11-08T22:11:28.953Z,13.86
2022-11-08T22:13:30.930Z,13.85
2022-11-08T22:15:32.717Z,13.93
2022-11-08T22:17:35.740Z,13.93
2022-11-08T22:19:37.813Z,13.89
2022-11-08T22:21:40.524Z,13.76
2022-11-08T22:23:43.308Z,13.80
2022-11-08T22:25:45.165Z,13.69
2022-11-08T22:27:46.945Z,13.72
2022-11-08T22:29:49.109Z,13.73
2022-11-08T22:31:50.958Z,13.66
2022-11-08T22:33:52.875Z,13.65
2022-11-08T22:35:55.177Z,13.75
2022-11-08T22:37:57.085Z,13.62
2022-11-08T22:39:59.122Z,13.75
2022-11-08T22:42:01.413Z,13.67
2022-11-08T22:44:06.238Z,13.55
2022-11-08T22:46:11.015Z,13.59
2022-11-08T22:48:13.294Z,13.61
2022-11-08T22:50:15.107Z,13.57
2022-11-08T22:52:17.095Z,13.63
2022-11-08T22:54:19.217Z,13.61
2022-11-08T22:56:21.488Z,13.51
2022-11-08T22:58:23.278Z,13.47
2022-11-08T23:00:25.662Z,13.50
2022-11-08T23:02:32.706Z,13.36
2022-11-08T23:04:34.984Z,13.35
2022-11-08T23:06:40.882Z,13.26
2022-11-08T23:08:43.868Z,13.24
2022-11-08T23:11:04.885Z,13.26
2022-11-08T23:13:26.918Z,13.13
2022-11-08T23:15:47.628Z,12.99
2022-11-08T23:17:49.401Z,13.07
2022-11-08T23:20:10.236Z,13.15
2022-11-08T23:22:35.729Z,13.10
2022-11-08T23:24:37.821Z,13.09
2022-11-08T23:26:58.451Z,12.99
2022-11-08T23:29:18.964Z,12.95
2022-11-08T23:31:35.661Z,13.01
2022-11-08T23:33:43.722Z,13.06
2022-11-08T23:36:05.474Z,12.97
2022-11-08T23:38:07.289Z,12.85
2022-11-08T23:40:30.187Z,12.81
2022-11-08T23:42:51.089Z,12.83
2022-11-08T23:44:52.897Z,12.79
2022-11-08T23:46:58.012Z,12.75
2022-11-08T23:48:59.889Z,12.82
2022-11-08T23:51:02.205Z,12.79
2022-11-08T23:53:04.351Z,12.83
2022-11-08T23:55:06.664Z,12.88
2022-11-08T23:57:08.465Z,12.90
2022-11-08T23:59:11.858Z,12.85
